sensor_id;sensor_type;location;lat;lon;timestamp;temperature;humidity
13496;DHT22;6820;49.374;8.452;2023-08-20T00:02:38;26.93;99.99
13496;DHT22;6820;49.374;8.452;2023-08-20T00:06:43;26.90;99.99
13496;DHT22;6820;49.374;8.452;2023-08-20T00:10:47;26.87;99.99
13496;DHT22;6820;49.374;8.452;2023-08-20T00:14:53;26.83;99.99
13496;DHT22;6820;49.374;8.452;2023-08-20T00:19:08;26.84;99.99
13496;DHT22;6820;49.374;8.452;2023-08-20T00:23:10;26.84;99.99
13496;DHT22;6820;49.374;8.452;2023-08-20T00:27:12;26.83;99.99
13496;DHT22;6820;49.374;8.452;2023-08-20T00:31:14;26.75;99.99
13496;DHT22;6820;49.374;8.452;2023-08-20T00:35:16;26.71;99.99
13496;DHT22;6820;49.374;8.452;2023-08-20T00:39:18;26.66;99.99
13496;DHT22;6820;49.374;8.452;2023-08-20T00:43:19;26.65;99.99
13496;DHT22;6820;49.374;8.452;2023-08-20T00:47:22;26.56;99.99
13496;DHT22;6820;49.374;8.452;2023-08-20T00:51:24;26.49;99.99
13496;DHT22;6820;49.374;8.452;2023-08-20T00:55:26;26.46;99.99
13496;DHT22;6820;49.374;8.452;2023-08-20T00:59:29;26.41;99.99
13496;DHT22;6820;49.374;8.452;2023-08-20T01:03:33;26.35;99.99
13496;DHT22;6820;49.374;8.452;2023-08-20T01:07:39;26.35;99.99
13496;DHT22;6820;49.374;8.452;2023-08-20T01:11:52;26.32;99.99
13496;DHT22;6820;49.374;8.452;2023-08-20T01:15:59;26.29;99.99
13496;DHT22;6820;49.374;8.452;2023-08-20T01:20:00;26.24;99.99
13496;DHT22;6820;49.374;8.452;2023-08-20T01:24:10;26.13;99.99
13496;DHT22;6820;49.374;8.452;2023-08-20T01:28:34;26.11;99.99
13496;DHT22;6820;49.374;8.452;2023-08-20T01:32:38;26.09;99.99
13496;DHT22;6820;49.374;8.452;2023-08-20T01:36:45;26.06;99.99
13496;DHT22;6820;49.374;8.452;2023-08-20T01:40:47;26.08;99.99
13496;DHT22;6820;49.374;8.452;2023-08-20T01:44:49;26.06;99.99
13496;DHT22;6820;49.374;8.452;2023-08-20T01:48:51;26.04;99.99
13496;DHT22;6820;49.374;8.452;2023-08-20T01:52:52;26.03;99.99
13496;DHT22;6820;49.374;8.452;2023-08-20T01:56:54;26.03;99.99
13496;DHT22;6820;49.374;8.452;2023-08-20T02:00:56;25.97;99.99
13496;DHT22;6820;49.374;8.452;2023-08-20T02:04:57;25.93;99.99
13496;DHT22;6820;49.374;8.452;2023-08-20T02:08:59;25.91;99.99
13496;DHT22;6820;49.374;8.452;2023-08-20T02:13:01;25.91;99.99
13496;DHT22;6820;49.374;8.452;2023-08-20T02:17:03;25.90;99.99
13496;DHT22;6820;49.374;8.452;2023-08-20T02:21:05;25.85;99.99
13496;DHT22;6820;49.374;8.452;2023-08-20T02:25:07;25.81;99.99
13496;DHT22;6820;49.374;8.452;2023-08-20T02:29:09;25.64;99.99
13496;DHT22;6820;49.374;8.452;2023-08-20T02:33:11;25.48;99.99
13496;DHT22;6820;49.374;8.452;2023-08-20T02:37:13;25.48;99.99
13496;DHT22;6820;49.374;8.452;2023-08-20T02:41:14;25.39;99.99
13496;DHT22;6820;49.374;8.452;2023-08-20T02:45:16;25.38;99.99
13496;DHT22;6820;49.374;8.452;2023-08-20T02:49:17;25.36;99.99
13496;DHT22;6820;49.374;8.452;2023-08-20T02:53:19;25.34;99.99
13496;DHT22;6820;49.374;8.452;2023-08-20T02:57:21;25.29;99.99
13496;DHT22;6820;49.374;8.452;2023-08-20T03:01:24;25.23;99.99
13496;DHT22;6820;49.374;8.452;2023-08-20T03:05:29;25.07;99.99
13496;DHT22;6820;49.374;8.452;2023-08-20T03:09:31;24.99;99.99
13496;DHT22;6820;49.374;8.452;2023-08-20T03:13:32;24.97;99.99
13496;DHT22;6820;49.374;8.452;2023-08-20T03:17:34;25.01;99.99
13496;DHT22;6820;49.374;8.452;2023-08-20T03:21:36;25.05;99.99
13496;DHT22;6820;49.374;8.452;2023-08-20T03:25:38;25.07;99.99
13496;DHT22;6820;49.374;8.452;2023-08-20T03:29:40;25.04;99.99
13496;DHT22;6820;49.374;8.452;2023-08-20T03:33:42;25.04;99.99
13496;DHT22;6820;49.374;8.452;2023-08-20T03:37:44;25.04;99.99
13496;DHT22;6820;49.374;8.452;2023-08-20T03:41:46;25.01;99.99
13496;DHT22;6820;49.374;8.452;2023-08-20T03:45:52;24.98;99.99
13496;DHT22;6820;49.374;8.452;2023-08-20T03:49:54;24.87;99.99
13496;DHT22;6820;49.374;8.452;2023-08-20T03:53:56;24.77;99.99
13496;DHT22;6820;49.374;8.452;2023-08-20T03:57:58;24.75;99.99
13496;DHT22;6820;49.374;8.452;2023-08-20T04:01:59;24.71;99.99
13496;DHT22;6820;49.374;8.452;2023-08-20T04:06:01;24.66;99.99
13496;DHT22;6820;49.374;8.452;2023-08-20T04:10:03;24.63;99.99
13496;DHT22;6820;49.374;8.452;2023-08-20T04:14:04;24.64;99.99
13496;DHT22;6820;49.374;8.452;2023-08-20T04:18:06;24.61;99.99
13496;DHT22;6820;49.374;8.452;2023-08-20T04:22:09;24.66;99.99
13496;DHT22;6820;49.374;8.452;2023-08-20T04:26:10;24.68;99.99
13496;DHT22;6820;49.374;8.452;2023-08-20T04:30:12;24.66;99.99
13496;DHT22;6820;49.374;8.452;2023-08-20T04:34:14;24.67;99.99
13496;DHT22;6820;49.374;8.452;2023-08-20T04:38:20;24.63;99.99
13496;DHT22;6820;49.374;8.452;2023-08-20T04:42:22;24.56;99.99
13496;DHT22;6820;49.374;8.452;2023-08-20T04:46:24;24.55;99.99
13496;DHT22;6820;49.374;8.452;2023-08-20T04:50:26;24.60;99.99
13496;DHT22;6820;49.374;8.452;2023-08-20T04:54:28;24.60;99.99
13496;DHT22;6820;49.374;8.452;2023-08-20T04:58:30;24.52;99.99
13496;DHT22;6820;49.374;8.452;2023-08-20T05:02:32;24.56;99.99
13496;DHT22;6820;49.374;8.452;2023-08-20T05:06:36;24.56;99.99
13496;DHT22;6820;49.374;8.452;2023-08-20T05:10:38;24.61;99.99
13496;DHT22;6820;49.374;8.452;2023-08-20T05:14:40;24.64;99.99
13496;DHT22;6820;49.374;8.452;2023-08-20T05:18:42;24.68;99.99
13496;DHT22;6820;49.374;8.452;2023-08-20T05:22:44;24.77;99.99
13496;DHT22;6820;49.374;8.452;2023-08-20T05:26:46;24.80;99.99
13496;DHT22;6820;49.374;8.452;2023-08-20T05:30:57;24.84;99.99
13496;DHT22;6820;49.374;8.452;2023-08-20T05:35:00;24.92;99.99
13496;DHT22;6820;49.374;8.452;2023-08-20T05:39:15;24.94;99.99
13496;DHT22;6820;49.374;8.452;2023-08-20T05:43:17;24.99;99.99
13496;DHT22;6820;49.374;8.452;2023-08-20T05:47:19;25.05;99.99
13496;DHT22;6820;49.374;8.452;2023-08-20T05:51:22;25.12;99.99
13496;DHT22;6820;49.374;8.452;2023-08-20T05:55:24;25.20;99.99
13496;DHT22;6820;49.374;8.452;2023-08-20T05:59:26;25.27;99.99
13496;DHT22;6820;49.374;8.452;2023-08-20T06:03:28;25.39;99.99
13496;DHT22;6820;49.374;8.452;2023-08-20T06:07:29;25.45;99.99
13496;DHT22;6820;49.374;8.452;2023-08-20T06:11:31;25.60;99.99
13496;DHT22;6820;49.374;8.452;2023-08-20T06:15:33;25.69;99.99
13496;DHT22;6820;49.374;8.452;2023-08-20T06:19:35;25.75;99.99
13496;DHT22;6820;49.374;8.452;2023-08-20T06:23:37;25.82;99.99
13496;DHT22;6820;49.374;8.452;2023-08-20T06:27:45;25.90;99.99
13496;DHT22;6820;49.374;8.452;2023-08-20T06:31:47;25.94;99.99
13496;DHT22;6820;49.374;8.452;2023-08-20T06:35:49;25.94;99.99
13496;DHT22;6820;49.374;8.452;2023-08-20T06:39:51;26.03;99.99
13496;DHT22;6820;49.374;8.452;2023-08-20T06:43:53;26.06;99.99
13496;DHT22;6820;49.374;8.452;2023-08-20T06:47:54;26.06;99.99
13496;DHT22;6820;49.374;8.452;2023-08-20T06:51:56;26.16;99.99
13496;DHT22;6820;49.374;8.452;2023-08-20T06:55:57;26.23;99.99
13496;DHT22;6820;49.374;8.452;2023-08-20T06:59:59;26.21;99.99
13496;DHT22;6820;49.374;8.452;2023-08-20T07:04:01;26.23;99.99
13496;DHT22;6820;49.374;8.452;2023-08-20T07:08:04;26.28;99.99
13496;DHT22;6820;49.374;8.452;2023-08-20T07:12:06;26.28;99.99
13496;DHT22;6820;49.374;8.452;2023-08-20T07:16:08;26.28;99.99
13496;DHT22;6820;49.374;8.452;2023-08-20T07:20:10;26.21;99.99
13496;DHT22;6820;49.374;8.452;2023-08-20T07:24:12;26.17;99.99
13496;DHT22;6820;49.374;8.452;2023-08-20T07:28:13;26.20;99.99
13496;DHT22;6820;49.374;8.452;2023-08-20T07:32:16;26.24;99.99
13496;DHT22;6820;49.374;8.452;2023-08-20T07:36:19;26.29;99.99
13496;DHT22;6820;49.374;8.452;2023-08-20T07:40:23;26.39;99.99
13496;DHT22;6820;49.374;8.452;2023-08-20T07:44:25;26.51;99.99
13496;DHT22;6820;49.374;8.452;2023-08-20T07:48:26;26.60;99.99
13496;DHT22;6820;49.374;8.452;2023-08-20T07:52:28;26.66;99.99
13496;DHT22;6820;49.374;8.452;2023-08-20T07:56:29;26.69;99.99
13496;DHT22;6820;49.374;8.452;2023-08-20T08:00:31;26.71;99.99
13496;DHT22;6820;49.374;8.452;2023-08-20T08:04:36;26.76;99.99
13496;DHT22;6820;49.374;8.452;2023-08-20T08:08:42;26.93;99.99
13496;DHT22;6820;49.374;8.452;2023-08-20T08:12:45;27.08;99.99
13496;DHT22;6820;49.374;8.452;2023-08-20T08:16:47;27.13;99.99
13496;DHT22;6820;49.374;8.452;2023-08-20T08:20:49;27.27;99.99
13496;DHT22;6820;49.374;8.452;2023-08-20T08:24:51;27.45;99.99
13496;DHT22;6820;49.374;8.452;2023-08-20T08:28:52;27.52;99.99
13496;DHT22;6820;49.374;8.452;2023-08-20T08:32:54;27.66;99.99
13496;DHT22;6820;49.374;8.452;2023-08-20T08:36:56;27.76;99.99
13496;DHT22;6820;49.374;8.452;2023-08-20T08:40:57;27.86;99.99
13496;DHT22;6820;49.374;8.452;2023-08-20T08:45:02;27.93;99.99
13496;DHT22;6820;49.374;8.452;2023-08-20T08:49:05;28.03;99.99
13496;DHT22;6820;49.374;8.452;2023-08-20T08:53:07;28.18;99.99
13496;DHT22;6820;49.374;8.452;2023-08-20T08:57:09;28.27;99.99
13496;DHT22;6820;49.374;8.452;2023-08-20T09:01:11;28.32;99.99
13496;DHT22;6820;49.374;8.452;2023-08-20T09:05:13;28.46;99.99
13496;DHT22;6820;49.374;8.452;2023-08-20T09:09:19;28.62;99.99
13496;DHT22;6820;49.374;8.452;2023-08-20T09:13:25;28.67;99.99
13496;DHT22;6820;49.374;8.452;2023-08-20T09:17:33;28.77;99.99
13496;DHT22;6820;49.374;8.452;2023-08-20T09:21:37;28.92;99.99
13496;DHT22;6820;49.374;8.452;2023-08-20T09:25:39;28.98;99.99
13496;DHT22;6820;49.374;8.452;2023-08-20T09:29:48;29.12;99.99
13496;DHT22;6820;49.374;8.452;2023-08-20T09:33:54;29.23;99.99
13496;DHT22;6820;49.374;8.452;2023-08-20T09:37:59;29.36;99.99
13496;DHT22;6820;49.374;8.452;2023-08-20T09:42:02;29.44;99.99
13496;DHT22;6820;49.374;8.452;2023-08-20T09:46:06;29.54;99.99
13496;DHT22;6820;49.374;8.452;2023-08-20T09:50:11;29.66;99.99
13496;DHT22;6820;49.374;8.452;2023-08-20T09:54:15;29.76;99.99
13496;DHT22;6820;49.374;8.452;2023-08-20T09:58:22;29.86;99.99
13496;DHT22;6820;49.374;8.452;2023-08-20T10:02:26;29.88;99.99
13496;DHT22;6820;49.374;8.452;2023-08-20T10:06:28;29.92;99.99
13496;DHT22;6820;49.374;8.452;2023-08-20T10:10:31;30.07;99.99
13496;DHT22;6820;49.374;8.452;2023-08-20T10:14:32;30.19;99.99
13496;DHT22;6820;49.374;8.452;2023-08-20T10:18:34;30.26;99.99
13496;DHT22;6820;49.374;8.452;2023-08-20T10:22:37;30.32;99.99
13496;DHT22;6820;49.374;8.452;2023-08-20T10:26:39;30.45;99.99
13496;DHT22;6820;49.374;8.452;2023-08-20T10:38:36;30.66;99.99
13496;DHT22;6820;49.374;8.452;2023-08-20T10:42:42;30.75;99.99
13496;DHT22;6820;49.374;8.452;2023-08-20T10:46:51;30.90;99.99
13496;DHT22;6820;49.374;8.452;2023-08-20T10:50:53;30.96;99.99
13496;DHT22;6820;49.374;8.452;2023-08-20T10:54:55;31.01;99.99
13496;DHT22;6820;49.374;8.452;2023-08-20T10:58:58;31.12;99.99
13496;DHT22;6820;49.374;8.452;2023-08-20T11:03:08;31.25;99.99
13496;DHT22;6820;49.374;8.452;2023-08-20T11:07:10;31.28;99.99
13496;DHT22;6820;49.374;8.452;2023-08-20T11:11:12;31.32;99.99
13496;DHT22;6820;49.374;8.452;2023-08-20T11:15:14;31.38;99.99
13496;DHT22;6820;49.374;8.452;2023-08-20T11:19:19;31.56;99.99
13496;DHT22;6820;49.374;8.452;2023-08-20T11:23:22;31.71;99.99
13496;DHT22;6820;49.374;8.452;2023-08-20T11:27:26;31.76;99.99
13496;DHT22;6820;49.374;8.452;2023-08-20T11:31:28;31.79;99.99
13496;DHT22;6820;49.374;8.452;2023-08-20T11:35:31;31.94;99.99
13496;DHT22;6820;49.374;8.452;2023-08-20T11:39:33;32.07;99.99
13496;DHT22;6820;49.374;8.452;2023-08-20T11:43:37;32.27;99.99
13496;DHT22;6820;49.374;8.452;2023-08-20T11:47:39;32.47;99.99
13496;DHT22;6820;49.374;8.452;2023-08-20T11:51:42;32.68;99.99
13496;DHT22;6820;49.374;8.452;2023-08-20T11:55:44;32.87;99.99
13496;DHT22;6820;49.374;8.452;2023-08-20T11:59:46;32.88;99.99
13496;DHT22;6820;49.374;8.452;2023-08-20T12:03:48;32.84;99.99
13496;DHT22;6820;49.374;8.452;2023-08-20T12:11:59;33.14;99.99
13496;DHT22;6820;49.374;8.452;2023-08-20T12:16:01;33.18;99.99
13496;DHT22;6820;49.374;8.452;2023-08-20T12:20:03;33.38;99.99
13496;DHT22;6820;49.374;8.452;2023-08-20T12:24:13;33.45;99.99
13496;DHT22;6820;49.374;8.452;2023-08-20T12:28:15;33.62;99.99
13496;DHT22;6820;49.374;8.452;2023-08-20T12:32:17;33.70;99.99
13496;DHT22;6820;49.374;8.452;2023-08-20T12:36:19;33.86;99.99
13496;DHT22;6820;49.374;8.452;2023-08-20T12:40:21;33.87;99.99
13496;DHT22;6820;49.374;8.452;2023-08-20T12:44:23;33.87;99.99
13496;DHT22;6820;49.374;8.452;2023-08-20T12:48:25;34.09;99.99
13496;DHT22;6820;49.374;8.452;2023-08-20T12:52:26;34.18;99.99
13496;DHT22;6820;49.374;8.452;2023-08-20T12:56:28;34.43;99.99
13496;DHT22;6820;49.374;8.452;2023-08-20T13:00:30;34.40;99.99
13496;DHT22;6820;49.374;8.452;2023-08-20T13:04:31;34.42;99.99
13496;DHT22;6820;49.374;8.452;2023-08-20T13:08:33;34.49;99.99
13496;DHT22;6820;49.374;8.452;2023-08-20T13:12:35;34.73;99.99
13496;DHT22;6820;49.374;8.452;2023-08-20T13:16:38;34.90;99.99
13496;DHT22;6820;49.374;8.452;2023-08-20T13:20:40;34.94;99.99
13496;DHT22;6820;49.374;8.452;2023-08-20T13:24:44;35.06;99.99
13496;DHT22;6820;49.374;8.452;2023-08-20T13:28:46;35.17;99.99
13496;DHT22;6820;49.374;8.452;2023-08-20T13:32:48;35.24;99.99
13496;DHT22;6820;49.374;8.452;2023-08-20T13:36:50;35.50;99.99
13496;DHT22;6820;49.374;8.452;2023-08-20T13:40:52;35.69;99.99
13496;DHT22;6820;49.374;8.452;2023-08-20T13:44:55;35.87;99.99
13496;DHT22;6820;49.374;8.452;2023-08-20T13:48:56;36.03;99.99
13496;DHT22;6820;49.374;8.452;2023-08-20T13:52:58;36.12;99.99
13496;DHT22;6820;49.374;8.452;2023-08-20T13:57:02;36.19;99.99
13496;DHT22;6820;49.374;8.452;2023-08-20T14:01:07;36.27;99.99
13496;DHT22;6820;49.374;8.452;2023-08-20T14:05:09;36.21;99.99
13496;DHT22;6820;49.374;8.452;2023-08-20T14:09:11;35.77;99.99
13496;DHT22;6820;49.374;8.452;2023-08-20T14:13:12;35.56;99.99
13496;DHT22;6820;49.374;8.452;2023-08-20T14:17:14;35.74;99.99
13496;DHT22;6820;49.374;8.452;2023-08-20T14:21:17;35.61;99.99
13496;DHT22;6820;49.374;8.452;2023-08-20T14:25:18;35.74;99.99
13496;DHT22;6820;49.374;8.452;2023-08-20T14:29:20;35.87;99.99
13496;DHT22;6820;49.374;8.452;2023-08-20T14:33:22;35.91;99.99
13496;DHT22;6820;49.374;8.452;2023-08-20T14:37:24;35.84;99.99
13496;DHT22;6820;49.374;8.452;2023-08-20T14:41:25;35.95;99.99
13496;DHT22;6820;49.374;8.452;2023-08-20T14:45:27;36.18;99.99
13496;DHT22;6820;49.374;8.452;2023-08-20T14:49:28;36.38;99.99
13496;DHT22;6820;49.374;8.452;2023-08-20T14:53:30;36.64;99.99
13496;DHT22;6820;49.374;8.452;2023-08-20T14:57:32;36.79;99.99
13496;DHT22;6820;49.374;8.452;2023-08-20T15:01:50;36.97;99.99
13496;DHT22;6820;49.374;8.452;2023-08-20T15:05:52;36.96;98.30
13496;DHT22;6820;49.374;8.452;2023-08-20T15:09:53;36.91;97.61
13496;DHT22;6820;49.374;8.452;2023-08-20T15:13:55;36.90;95.77
13496;DHT22;6820;49.374;8.452;2023-08-20T15:17:57;36.87;95.77
13496;DHT22;6820;49.374;8.452;2023-08-20T15:21:58;36.93;96.79
13496;DHT22;6820;49.374;8.452;2023-08-20T15:26:00;37.27;95.67
13496;DHT22;6820;49.374;8.452;2023-08-20T15:30:02;37.46;96.60
13496;DHT22;6820;49.374;8.452;2023-08-20T15:34:04;37.13;96.94
13496;DHT22;6820;49.374;8.452;2023-08-20T15:38:06;36.99;97.47
13496;DHT22;6820;49.374;8.452;2023-08-20T15:42:08;37.39;97.91
13496;DHT22;6820;49.374;8.452;2023-08-20T15:46:10;37.50;96.45
13496;DHT22;6820;49.374;8.452;2023-08-20T15:50:11;37.35;96.36
13496;DHT22;6820;49.374;8.452;2023-08-20T15:54:14;37.02;96.69
13496;DHT22;6820;49.374;8.452;2023-08-20T15:58:15;36.96;97.81
13496;DHT22;6820;49.374;8.452;2023-08-20T16:02:17;37.21;96.74
13496;DHT22;6820;49.374;8.452;2023-08-20T16:06:18;37.53;96.89
13496;DHT22;6820;49.374;8.452;2023-08-20T16:10:20;37.50;95.48
13496;DHT22;6820;49.374;8.452;2023-08-20T16:14:23;37.35;95.19
13496;DHT22;6820;49.374;8.452;2023-08-20T16:18:26;37.20;95.73
13496;DHT22;6820;49.374;8.452;2023-08-20T16:22:27;37.06;95.73
13496;DHT22;6820;49.374;8.452;2023-08-20T16:26:29;37.05;96.74
13496;DHT22;6820;49.374;8.452;2023-08-20T16:30:31;37.02;97.13
13496;DHT22;6820;49.374;8.452;2023-08-20T16:34:33;36.87;96.26
13496;DHT22;6820;49.374;8.452;2023-08-20T16:38:34;36.79;96.59
13496;DHT22;6820;49.374;8.452;2023-08-20T16:42:36;36.65;96.40
13496;DHT22;6820;49.374;8.452;2023-08-20T16:46:38;36.50;96.98
13496;DHT22;6820;49.374;8.452;2023-08-20T16:50:39;36.43;97.61
13496;DHT22;6820;49.374;8.452;2023-08-20T16:54:45;36.27;98.00
13496;DHT22;6820;49.374;8.452;2023-08-20T16:58:48;36.08;96.79
13496;DHT22;6820;49.374;8.452;2023-08-20T17:02:49;35.96;97.42
13496;DHT22;6820;49.374;8.452;2023-08-20T17:06:51;35.81;98.68
13496;DHT22;6820;49.374;8.452;2023-08-20T17:10:52;35.58;99.32
13496;DHT22;6820;49.374;8.452;2023-08-20T17:14:54;35.39;99.07
13496;DHT22;6820;49.374;8.452;2023-08-20T17:18:57;35.20;99.95
13496;DHT22;6820;49.374;8.452;2023-08-20T17:22:59;34.98;99.99
13496;DHT22;6820;49.374;8.452;2023-08-20T17:27:01;34.84;99.99
13496;DHT22;6820;49.374;8.452;2023-08-20T17:31:03;34.67;99.99
13496;DHT22;6820;49.374;8.452;2023-08-20T17:35:05;34.50;99.99
13496;DHT22;6820;49.374;8.452;2023-08-20T17:39:09;34.34;99.99
13496;DHT22;6820;49.374;8.452;2023-08-20T17:43:11;34.16;99.99
13496;DHT22;6820;49.374;8.452;2023-08-20T17:47:13;34.03;99.99
13496;DHT22;6820;49.374;8.452;2023-08-20T17:51:15;33.89;99.99
13496;DHT22;6820;49.374;8.452;2023-08-20T17:55:17;33.74;99.99
13496;DHT22;6820;49.374;8.452;2023-08-20T17:59:18;33.59;99.99
13496;DHT22;6820;49.374;8.452;2023-08-20T18:03:20;33.41;99.99
13496;DHT22;6820;49.374;8.452;2023-08-20T18:07:21;33.28;99.99
13496;DHT22;6820;49.374;8.452;2023-08-20T18:11:23;33.15;99.99
13496;DHT22;6820;49.374;8.452;2023-08-20T18:15:25;33.05;99.99
13496;DHT22;6820;49.374;8.452;2023-08-20T18:19:26;32.95;99.99
13496;DHT22;6820;49.374;8.452;2023-08-20T18:23:28;32.83;99.99
13496;DHT22;6820;49.374;8.452;2023-08-20T18:27:30;32.72;99.99
13496;DHT22;6820;49.374;8.452;2023-08-20T18:31:31;32.61;99.99
13496;DHT22;6820;49.374;8.452;2023-08-20T18:35:33;32.49;99.99
13496;DHT22;6820;49.374;8.452;2023-08-20T18:39:35;32.39;99.99
13496;DHT22;6820;49.374;8.452;2023-08-20T18:43:37;32.28;99.99
13496;DHT22;6820;49.374;8.452;2023-08-20T18:47:46;32.21;99.99
13496;DHT22;6820;49.374;8.452;2023-08-20T18:51:48;32.12;99.99
13496;DHT22;6820;49.374;8.452;2023-08-20T18:55:49;32.03;99.99
13496;DHT22;6820;49.374;8.452;2023-08-20T18:59:51;31.91;99.99
13496;DHT22;6820;49.374;8.452;2023-08-20T19:03:53;31.82;99.99
13496;DHT22;6820;49.374;8.452;2023-08-20T19:07:56;31.67;99.99
13496;DHT22;6820;49.374;8.452;2023-08-20T19:11:57;31.54;99.99
13496;DHT22;6820;49.374;8.452;2023-08-20T19:16:00;31.46;99.99
13496;DHT22;6820;49.374;8.452;2023-08-20T19:20:02;31.27;99.99
13496;DHT22;6820;49.374;8.452;2023-08-20T19:24:11;31.27;99.99
13496;DHT22;6820;49.374;8.452;2023-08-20T19:28:12;31.22;99.99
13496;DHT22;6820;49.374;8.452;2023-08-20T19:32:14;31.16;99.99
13496;DHT22;6820;49.374;8.452;2023-08-20T19:36:17;31.09;99.99
13496;DHT22;6820;49.374;8.452;2023-08-20T19:40:19;31.03;99.99
13496;DHT22;6820;49.374;8.452;2023-08-20T19:44:24;31.00;99.99
13496;DHT22;6820;49.374;8.452;2023-08-20T19:48:25;30.94;99.99
13496;DHT22;6820;49.374;8.452;2023-08-20T19:52:27;30.86;99.99
13496;DHT22;6820;49.374;8.452;2023-08-20T19:56:29;30.85;99.99
13496;DHT22;6820;49.374;8.452;2023-08-20T20:00:31;30.81;99.99
13496;DHT22;6820;49.374;8.452;2023-08-20T20:04:37;30.70;99.99
13496;DHT22;6820;49.374;8.452;2023-08-20T20:08:50;30.60;99.99
13496;DHT22;6820;49.374;8.452;2023-08-20T20:12:53;30.51;99.99
13496;DHT22;6820;49.374;8.452;2023-08-20T20:16:55;30.45;99.99
13496;DHT22;6820;49.374;8.452;2023-08-20T20:20:57;30.34;99.99
13496;DHT22;6820;49.374;8.452;2023-08-20T20:25:00;30.28;99.99
13496;DHT22;6820;49.374;8.452;2023-08-20T20:29:01;30.19;99.99
13496;DHT22;6820;49.374;8.452;2023-08-20T20:33:04;30.11;99.99
13496;DHT22;6820;49.374;8.452;2023-08-20T20:37:06;30.04;99.99
13496;DHT22;6820;49.374;8.452;2023-08-20T20:41:07;30.07;99.99
13496;DHT22;6820;49.374;8.452;2023-08-20T20:45:09;30.06;99.99
13496;DHT22;6820;49.374;8.452;2023-08-20T20:49:12;30.00;99.99
13496;DHT22;6820;49.374;8.452;2023-08-20T20:53:13;29.99;99.99
13496;DHT22;6820;49.374;8.452;2023-08-20T20:57:15;29.89;99.99
13496;DHT22;6820;49.374;8.452;2023-08-20T21:01:17;29.84;99.99
13496;DHT22;6820;49.374;8.452;2023-08-20T21:05:19;29.81;99.99
13496;DHT22;6820;49.374;8.452;2023-08-20T21:09:21;29.73;99.99
13496;DHT22;6820;49.374;8.452;2023-08-20T21:13:22;29.64;99.99
13496;DHT22;6820;49.374;8.452;2023-08-20T21:17:24;29.60;99.99
13496;DHT22;6820;49.374;8.452;2023-08-20T21:21:26;29.52;99.99
13496;DHT22;6820;49.374;8.452;2023-08-20T21:25:28;29.44;99.99
13496;DHT22;6820;49.374;8.452;2023-08-20T21:29:29;29.37;99.99
13496;DHT22;6820;49.374;8.452;2023-08-20T21:33:31;29.32;99.99
13496;DHT22;6820;49.374;8.452;2023-08-20T21:37:33;29.21;99.99
13496;DHT22;6820;49.374;8.452;2023-08-20T21:41:35;29.07;99.99
13496;DHT22;6820;49.374;8.452;2023-08-20T21:45:36;28.92;99.99
13496;DHT22;6820;49.374;8.452;2023-08-20T21:49:38;28.76;99.99
13496;DHT22;6820;49.374;8.452;2023-08-20T21:53:40;28.73;99.99
13496;DHT22;6820;49.374;8.452;2023-08-20T21:57:42;28.67;99.99
13496;DHT22;6820;49.374;8.452;2023-08-20T22:01:43;28.65;99.99
13496;DHT22;6820;49.374;8.452;2023-08-20T22:05:45;28.65;99.99
13496;DHT22;6820;49.374;8.452;2023-08-20T22:09:48;28.65;99.99
13496;DHT22;6820;49.374;8.452;2023-08-20T22:13:49;28.62;99.99
13496;DHT22;6820;49.374;8.452;2023-08-20T22:17:52;28.62;99.99
13496;DHT22;6820;49.374;8.452;2023-08-20T22:21:53;28.57;99.99
13496;DHT22;6820;49.374;8.452;2023-08-20T22:25:55;28.52;99.99
13496;DHT22;6820;49.374;8.452;2023-08-20T22:29:57;28.45;99.99
13496;DHT22;6820;49.374;8.452;2023-08-20T22:33:59;28.46;99.99
13496;DHT22;6820;49.374;8.452;2023-08-20T22:38:07;28.42;99.99
13496;DHT22;6820;49.374;8.452;2023-08-20T22:42:10;28.40;99.99
13496;DHT22;6820;49.374;8.452;2023-08-20T22:46:11;28.45;99.99
13496;DHT22;6820;49.374;8.452;2023-08-20T22:50:13;28.50;99.99
13496;DHT22;6820;49.374;8.452;2023-08-20T22:54:15;28.46;99.99
13496;DHT22;6820;49.374;8.452;2023-08-20T22:58:19;28.39;99.99
13496;DHT22;6820;49.374;8.452;2023-08-20T23:02:21;28.30;99.99
13496;DHT22;6820;49.374;8.452;2023-08-20T23:06:22;28.27;99.99
13496;DHT22;6820;49.374;8.452;2023-08-20T23:10:24;28.20;99.99
13496;DHT22;6820;49.374;8.452;2023-08-20T23:14:26;28.15;99.99
13496;DHT22;6820;49.374;8.452;2023-08-20T23:18:27;28.15;99.99
13496;DHT22;6820;49.374;8.452;2023-08-20T23:22:29;28.17;99.99
13496;DHT22;6820;49.374;8.452;2023-08-20T23:26:30;28.15;99.99
13496;DHT22;6820;49.374;8.452;2023-08-20T23:30:32;28.11;99.99
13496;DHT22;6820;49.374;8.452;2023-08-20T23:34:33;28.06;99.99
13496;DHT22;6820;49.374;8.452;2023-08-20T23:38:35;28.05;99.99
13496;DHT22;6820;49.374;8.452;2023-08-20T23:42:41;28.06;99.99
13496;DHT22;6820;49.374;8.452;2023-08-20T23:46:43;28.06;99.99
13496;DHT22;6820;49.374;8.452;2023-08-20T23:50:49;28.05;99.99
13496;DHT22;6820;49.374;8.452;2023-08-20T23:54:50;28.01;99.99
13496;DHT22;6820;49.374;8.452;2023-08-20T23:58:52;28.01;99.99
